sensor_id;sensor_type;location;lat;lon;timestamp;temperature;humidity
7720;DHT22;3902;49.474;8.616;2023-07-20T00:01:59;22.90;92.60
7720;DHT22;3902;49.474;8.616;2023-07-20T00:04:24;22.80;92.60
7720;DHT22;3902;49.474;8.616;2023-07-20T00:06:50;22.80;92.60
7720;DHT22;3902;49.474;8.616;2023-07-20T00:09:15;22.70;92.70
7720;DHT22;3902;49.474;8.616;2023-07-20T00:11:49;22.70;92.70
7720;DHT22;3902;49.474;8.616;2023-07-20T00:14:18;22.60;92.70
7720;DHT22;3902;49.474;8.616;2023-07-20T00:16:46;22.70;92.80
7720;DHT22;3902;49.474;8.616;2023-07-20T00:19:13;22.70;93.00
7720;DHT22;3902;49.474;8.616;2023-07-20T00:21:38;22.70;93.10
7720;DHT22;3902;49.474;8.616;2023-07-20T00:24:06;22.50;93.00
7720;DHT22;3902;49.474;8.616;2023-07-20T00:26:31;22.40;92.90
7720;DHT22;3902;49.474;8.616;2023-07-20T00:28:57;22.40;92.90
7720;DHT22;3902;49.474;8.616;2023-07-20T00:31:22;22.40;93.10
7720;DHT22;3902;49.474;8.616;2023-07-20T00:33:48;22.50;93.10
7720;DHT22;3902;49.474;8.616;2023-07-20T00:36:14;22.40;93.00
7720;DHT22;3902;49.474;8.616;2023-07-20T00:38:39;22.40;93.10
7720;DHT22;3902;49.474;8.616;2023-07-20T00:41:06;22.40;93.10
7720;DHT22;3902;49.474;8.616;2023-07-20T00:43:31;22.30;93.10
7720;DHT22;3902;49.474;8.616;2023-07-20T00:45:57;22.30;93.20
7720;DHT22;3902;49.474;8.616;2023-07-20T00:48:23;22.30;93.10
7720;DHT22;3902;49.474;8.616;2023-07-20T00:50:49;22.20;93.20
7720;DHT22;3902;49.474;8.616;2023-07-20T00:53:15;22.20;93.20
7720;DHT22;3902;49.474;8.616;2023-07-20T00:55:41;22.30;93.30
7720;DHT22;3902;49.474;8.616;2023-07-20T00:58:07;22.40;93.40
7720;DHT22;3902;49.474;8.616;2023-07-20T01:00:33;22.30;93.30
7720;DHT22;3902;49.474;8.616;2023-07-20T01:02:59;22.20;93.30
7720;DHT22;3902;49.474;8.616;2023-07-20T01:05:46;22.20;93.40
7720;DHT22;3902;49.474;8.616;2023-07-20T01:08:21;22.20;93.50
7720;DHT22;3902;49.474;8.616;2023-07-20T01:11:24;22.20;93.50
7720;DHT22;3902;49.474;8.616;2023-07-20T01:13:47;22.10;93.70
7720;DHT22;3902;49.474;8.616;2023-07-20T01:16:13;22.10;93.70
7720;DHT22;3902;49.474;8.616;2023-07-20T01:18:38;22.10;93.80
7720;DHT22;3902;49.474;8.616;2023-07-20T01:21:09;22.10;94.10
7720;DHT22;3902;49.474;8.616;2023-07-20T01:29:36;22.00;93.90
7720;DHT22;3902;49.474;8.616;2023-07-20T01:32:07;21.90;94.00
7720;DHT22;3902;49.474;8.616;2023-07-20T01:34:34;22.00;94.50
7720;DHT22;3902;49.474;8.616;2023-07-20T01:37:01;22.00;94.40
7720;DHT22;3902;49.474;8.616;2023-07-20T01:39:27;21.90;94.30
7720;DHT22;3902;49.474;8.616;2023-07-20T01:41:53;21.80;94.70
7720;DHT22;3902;49.474;8.616;2023-07-20T01:44:20;21.80;94.40
7720;DHT22;3902;49.474;8.616;2023-07-20T01:46:45;21.70;94.50
7720;DHT22;3902;49.474;8.616;2023-07-20T01:49:11;21.80;94.50
7720;DHT22;3902;49.474;8.616;2023-07-20T01:51:37;21.80;94.70
7720;DHT22;3902;49.474;8.616;2023-07-20T01:54:02;21.80;94.90
7720;DHT22;3902;49.474;8.616;2023-07-20T01:56:28;21.80;94.70
7720;DHT22;3902;49.474;8.616;2023-07-20T01:58:53;21.80;94.90
7720;DHT22;3902;49.474;8.616;2023-07-20T02:01:19;21.70;94.80
7720;DHT22;3902;49.474;8.616;2023-07-20T02:03:44;21.70;95.10
7720;DHT22;3902;49.474;8.616;2023-07-20T02:06:10;21.70;95.20
7720;DHT22;3902;49.474;8.616;2023-07-20T02:08:35;21.80;95.20
7720;DHT22;3902;49.474;8.616;2023-07-20T02:11:01;21.70;95.10
7720;DHT22;3902;49.474;8.616;2023-07-20T02:13:27;21.70;95.10
7720;DHT22;3902;49.474;8.616;2023-07-20T02:15:53;21.70;95.20
7720;DHT22;3902;49.474;8.616;2023-07-20T02:18:18;21.70;95.60
7720;DHT22;3902;49.474;8.616;2023-07-20T02:20:44;21.70;95.80
7720;DHT22;3902;49.474;8.616;2023-07-20T02:23:10;21.60;95.50
7720;DHT22;3902;49.474;8.616;2023-07-20T02:25:36;21.60;95.70
7720;DHT22;3902;49.474;8.616;2023-07-20T02:28:04;21.70;96.00
7720;DHT22;3902;49.474;8.616;2023-07-20T02:30:29;21.60;96.10
7720;DHT22;3902;49.474;8.616;2023-07-20T02:32:55;21.60;96.10
7720;DHT22;3902;49.474;8.616;2023-07-20T02:35:23;21.50;96.30
7720;DHT22;3902;49.474;8.616;2023-07-20T02:37:49;21.50;96.10
7720;DHT22;3902;49.474;8.616;2023-07-20T02:40:14;21.50;96.20
7720;DHT22;3902;49.474;8.616;2023-07-20T02:42:40;21.50;96.40
7720;DHT22;3902;49.474;8.616;2023-07-20T02:45:06;21.40;96.40
7720;DHT22;3902;49.474;8.616;2023-07-20T02:47:32;21.40;96.40
7720;DHT22;3902;49.474;8.616;2023-07-20T02:49:57;21.30;96.50
7720;DHT22;3902;49.474;8.616;2023-07-20T02:52:23;21.30;96.60
7720;DHT22;3902;49.474;8.616;2023-07-20T02:54:49;21.20;96.60
7720;DHT22;3902;49.474;8.616;2023-07-20T02:57:15;21.20;96.80
7720;DHT22;3902;49.474;8.616;2023-07-20T02:59:40;21.20;96.90
7720;DHT22;3902;49.474;8.616;2023-07-20T03:02:05;21.10;97.10
7720;DHT22;3902;49.474;8.616;2023-07-20T03:04:35;21.10;97.10
7720;DHT22;3902;49.474;8.616;2023-07-20T03:07:02;21.00;97.10
7720;DHT22;3902;49.474;8.616;2023-07-20T03:09:28;21.00;97.20
7720;DHT22;3902;49.474;8.616;2023-07-20T03:11:54;20.90;97.20
7720;DHT22;3902;49.474;8.616;2023-07-20T03:14:20;20.90;97.30
7720;DHT22;3902;49.474;8.616;2023-07-20T03:16:45;20.90;97.60
7720;DHT22;3902;49.474;8.616;2023-07-20T03:19:11;20.80;97.60
7720;DHT22;3902;49.474;8.616;2023-07-20T03:21:36;20.80;97.70
7720;DHT22;3902;49.474;8.616;2023-07-20T03:24:07;20.70;97.80
7720;DHT22;3902;49.474;8.616;2023-07-20T03:26:32;20.70;97.80
7720;DHT22;3902;49.474;8.616;2023-07-20T03:28:58;20.70;98.00
7720;DHT22;3902;49.474;8.616;2023-07-20T03:31:23;20.70;98.00
7720;DHT22;3902;49.474;8.616;2023-07-20T03:33:49;20.60;98.20
7720;DHT22;3902;49.474;8.616;2023-07-20T03:36:14;20.70;98.20
7720;DHT22;3902;49.474;8.616;2023-07-20T03:38:40;20.60;98.30
7720;DHT22;3902;49.474;8.616;2023-07-20T03:41:05;20.60;98.30
7720;DHT22;3902;49.474;8.616;2023-07-20T03:43:31;20.60;98.30
7720;DHT22;3902;49.474;8.616;2023-07-20T03:45:56;20.60;98.40
7720;DHT22;3902;49.474;8.616;2023-07-20T03:48:23;20.60;98.60
7720;DHT22;3902;49.474;8.616;2023-07-20T03:50:50;20.50;98.80
7720;DHT22;3902;49.474;8.616;2023-07-20T03:53:16;20.50;98.90
7720;DHT22;3902;49.474;8.616;2023-07-20T03:55:48;20.50;98.90
7720;DHT22;3902;49.474;8.616;2023-07-20T03:58:14;20.50;99.20
7720;DHT22;3902;49.474;8.616;2023-07-20T04:00:39;20.50;99.20
7720;DHT22;3902;49.474;8.616;2023-07-20T04:03:06;20.40;99.20
7720;DHT22;3902;49.474;8.616;2023-07-20T04:05:32;20.50;99.20
7720;DHT22;3902;49.474;8.616;2023-07-20T04:07:58;20.50;98.90
7720;DHT22;3902;49.474;8.616;2023-07-20T04:10:24;20.40;99.10
7720;DHT22;3902;49.474;8.616;2023-07-20T04:12:49;20.40;99.50
7720;DHT22;3902;49.474;8.616;2023-07-20T04:15:15;20.40;99.60
7720;DHT22;3902;49.474;8.616;2023-07-20T04:17:41;20.30;99.70
7720;DHT22;3902;49.474;8.616;2023-07-20T04:20:07;20.30;99.90
7720;DHT22;3902;49.474;8.616;2023-07-20T04:22:34;20.30;99.90
7720;DHT22;3902;49.474;8.616;2023-07-20T04:24:59;20.40;99.90
7720;DHT22;3902;49.474;8.616;2023-07-20T04:27:25;20.40;99.90
7720;DHT22;3902;49.474;8.616;2023-07-20T04:29:51;20.40;99.90
7720;DHT22;3902;49.474;8.616;2023-07-20T04:32:17;20.40;99.90
7720;DHT22;3902;49.474;8.616;2023-07-20T04:34:42;20.40;99.90
7720;DHT22;3902;49.474;8.616;2023-07-20T04:37:08;20.40;99.90
7720;DHT22;3902;49.474;8.616;2023-07-20T04:39:33;20.40;99.90
7720;DHT22;3902;49.474;8.616;2023-07-20T04:41:59;20.40;99.90
7720;DHT22;3902;49.474;8.616;2023-07-20T04:44:24;20.40;99.90
7720;DHT22;3902;49.474;8.616;2023-07-20T04:46:50;20.50;99.90
7720;DHT22;3902;49.474;8.616;2023-07-20T04:49:16;20.40;99.90
7720;DHT22;3902;49.474;8.616;2023-07-20T04:51:41;20.50;99.90
7720;DHT22;3902;49.474;8.616;2023-07-20T04:54:07;20.60;99.90
7720;DHT22;3902;49.474;8.616;2023-07-20T04:56:32;20.60;99.90
7720;DHT22;3902;49.474;8.616;2023-07-20T04:58:59;20.60;99.90
7720;DHT22;3902;49.474;8.616;2023-07-20T05:01:24;20.60;99.90
7720;DHT22;3902;49.474;8.616;2023-07-20T05:03:52;20.60;99.90
7720;DHT22;3902;49.474;8.616;2023-07-20T05:06:17;20.60;99.90
7720;DHT22;3902;49.474;8.616;2023-07-20T05:08:43;20.60;99.90
7720;DHT22;3902;49.474;8.616;2023-07-20T05:11:08;20.60;99.90
7720;DHT22;3902;49.474;8.616;2023-07-20T05:13:34;20.60;99.90
7720;DHT22;3902;49.474;8.616;2023-07-20T05:16:00;20.60;99.90
7720;DHT22;3902;49.474;8.616;2023-07-20T05:18:25;20.60;99.90
7720;DHT22;3902;49.474;8.616;2023-07-20T05:20:51;20.60;99.90
7720;DHT22;3902;49.474;8.616;2023-07-20T05:23:20;20.70;99.90
7720;DHT22;3902;49.474;8.616;2023-07-20T05:25:45;20.70;99.90
7720;DHT22;3902;49.474;8.616;2023-07-20T05:28:11;20.70;99.90
7720;DHT22;3902;49.474;8.616;2023-07-20T05:30:37;20.80;99.90
7720;DHT22;3902;49.474;8.616;2023-07-20T05:33:02;20.70;99.90
7720;DHT22;3902;49.474;8.616;2023-07-20T05:35:28;20.80;99.90
7720;DHT22;3902;49.474;8.616;2023-07-20T05:37:53;20.80;99.90
7720;DHT22;3902;49.474;8.616;2023-07-20T05:40:19;20.80;99.90
7720;DHT22;3902;49.474;8.616;2023-07-20T05:42:48;20.80;99.90
7720;DHT22;3902;49.474;8.616;2023-07-20T05:45:17;20.80;99.90
7720;DHT22;3902;49.474;8.616;2023-07-20T05:47:43;20.80;99.90
7720;DHT22;3902;49.474;8.616;2023-07-20T05:50:09;20.80;99.90
7720;DHT22;3902;49.474;8.616;2023-07-20T05:52:34;20.80;99.90
7720;DHT22;3902;49.474;8.616;2023-07-20T05:55:00;20.80;99.90
7720;DHT22;3902;49.474;8.616;2023-07-20T05:57:25;20.70;99.90
7720;DHT22;3902;49.474;8.616;2023-07-20T05:59:51;20.80;99.90
7720;DHT22;3902;49.474;8.616;2023-07-20T06:02:16;20.70;99.90
7720;DHT22;3902;49.474;8.616;2023-07-20T06:04:42;20.70;99.90
7720;DHT22;3902;49.474;8.616;2023-07-20T06:07:07;20.80;99.90
7720;DHT22;3902;49.474;8.616;2023-07-20T06:09:33;20.80;99.90
7720;DHT22;3902;49.474;8.616;2023-07-20T06:11:59;20.80;99.90
7720;DHT22;3902;49.474;8.616;2023-07-20T06:14:25;20.80;99.90
7720;DHT22;3902;49.474;8.616;2023-07-20T06:16:51;20.70;99.90
7720;DHT22;3902;49.474;8.616;2023-07-20T06:19:16;20.70;99.90
7720;DHT22;3902;49.474;8.616;2023-07-20T06:21:42;20.70;99.90
7720;DHT22;3902;49.474;8.616;2023-07-20T06:24:07;20.70;99.90
7720;DHT22;3902;49.474;8.616;2023-07-20T06:26:33;20.70;99.90
7720;DHT22;3902;49.474;8.616;2023-07-20T06:29:07;20.70;99.90
7720;DHT22;3902;49.474;8.616;2023-07-20T06:31:34;20.60;99.90
7720;DHT22;3902;49.474;8.616;2023-07-20T06:33:59;20.70;99.90
7720;DHT22;3902;49.474;8.616;2023-07-20T06:36:25;20.60;99.90
7720;DHT22;3902;49.474;8.616;2023-07-20T06:38:53;20.60;99.90
7720;DHT22;3902;49.474;8.616;2023-07-20T06:41:19;20.60;99.90
7720;DHT22;3902;49.474;8.616;2023-07-20T06:43:45;20.60;99.90
7720;DHT22;3902;49.474;8.616;2023-07-20T06:46:11;20.60;99.90
7720;DHT22;3902;49.474;8.616;2023-07-20T06:48:36;20.60;99.90
7720;DHT22;3902;49.474;8.616;2023-07-20T06:51:02;20.70;99.90
7720;DHT22;3902;49.474;8.616;2023-07-20T06:53:28;20.70;99.90
7720;DHT22;3902;49.474;8.616;2023-07-20T06:55:54;20.70;99.90
7720;DHT22;3902;49.474;8.616;2023-07-20T06:58:23;20.70;99.90
7720;DHT22;3902;49.474;8.616;2023-07-20T07:00:49;20.80;99.90
7720;DHT22;3902;49.474;8.616;2023-07-20T07:03:14;20.80;99.90
7720;DHT22;3902;49.474;8.616;2023-07-20T07:05:40;20.90;99.90
7720;DHT22;3902;49.474;8.616;2023-07-20T07:08:06;20.90;99.90
7720;DHT22;3902;49.474;8.616;2023-07-20T07:10:32;21.00;99.90
7720;DHT22;3902;49.474;8.616;2023-07-20T07:12:58;21.00;99.90
7720;DHT22;3902;49.474;8.616;2023-07-20T07:15:23;21.00;99.90
7720;DHT22;3902;49.474;8.616;2023-07-20T07:17:49;21.00;99.90
7720;DHT22;3902;49.474;8.616;2023-07-20T07:20:15;21.00;99.90
7720;DHT22;3902;49.474;8.616;2023-07-20T07:22:40;21.10;99.90
7720;DHT22;3902;49.474;8.616;2023-07-20T07:25:09;21.20;99.90
7720;DHT22;3902;49.474;8.616;2023-07-20T07:27:35;21.20;99.90
7720;DHT22;3902;49.474;8.616;2023-07-20T07:30:01;21.30;99.90
7720;DHT22;3902;49.474;8.616;2023-07-20T07:32:27;21.40;99.90
7720;DHT22;3902;49.474;8.616;2023-07-20T07:34:52;21.40;99.90
7720;DHT22;3902;49.474;8.616;2023-07-20T07:37:18;21.50;99.90
7720;DHT22;3902;49.474;8.616;2023-07-20T07:39:45;21.60;99.90
7720;DHT22;3902;49.474;8.616;2023-07-20T07:42:11;21.70;99.90
7720;DHT22;3902;49.474;8.616;2023-07-20T07:44:37;21.60;99.90
7720;DHT22;3902;49.474;8.616;2023-07-20T07:47:03;21.60;99.80
7720;DHT22;3902;49.474;8.616;2023-07-20T07:49:29;21.60;99.40
7720;DHT22;3902;49.474;8.616;2023-07-20T07:51:54;21.60;99.50
7720;DHT22;3902;49.474;8.616;2023-07-20T07:54:20;21.60;99.20
7720;DHT22;3902;49.474;8.616;2023-07-20T07:56:45;21.60;99.50
7720;DHT22;3902;49.474;8.616;2023-07-20T07:59:11;21.60;99.70
7720;DHT22;3902;49.474;8.616;2023-07-20T08:01:37;21.60;99.50
7720;DHT22;3902;49.474;8.616;2023-07-20T08:04:02;21.60;99.50
7720;DHT22;3902;49.474;8.616;2023-07-20T08:06:29;21.70;99.50
7720;DHT22;3902;49.474;8.616;2023-07-20T08:08:54;21.70;99.40
7720;DHT22;3902;49.474;8.616;2023-07-20T08:11:20;21.70;98.90
7720;DHT22;3902;49.474;8.616;2023-07-20T08:13:45;21.80;99.00
7720;DHT22;3902;49.474;8.616;2023-07-20T08:16:11;21.80;98.30
7720;DHT22;3902;49.474;8.616;2023-07-20T08:18:36;22.00;98.60
7720;DHT22;3902;49.474;8.616;2023-07-20T08:21:02;22.10;98.60
7720;DHT22;3902;49.474;8.616;2023-07-20T08:23:28;22.10;98.70
7720;DHT22;3902;49.474;8.616;2023-07-20T08:25:54;22.20;98.70
7720;DHT22;3902;49.474;8.616;2023-07-20T08:28:19;22.10;98.70
7720;DHT22;3902;49.474;8.616;2023-07-20T08:30:47;22.00;98.40
7720;DHT22;3902;49.474;8.616;2023-07-20T08:33:14;21.90;98.80
7720;DHT22;3902;49.474;8.616;2023-07-20T08:35:40;21.90;99.00
7720;DHT22;3902;49.474;8.616;2023-07-20T08:38:06;21.90;98.80
7720;DHT22;3902;49.474;8.616;2023-07-20T08:40:33;22.00;98.60
7720;DHT22;3902;49.474;8.616;2023-07-20T08:43:00;22.10;98.90
7720;DHT22;3902;49.474;8.616;2023-07-20T08:45:28;22.20;98.90
7720;DHT22;3902;49.474;8.616;2023-07-20T08:47:58;22.20;98.50
7720;DHT22;3902;49.474;8.616;2023-07-20T08:50:30;22.30;98.50
7720;DHT22;3902;49.474;8.616;2023-07-20T08:52:57;22.40;98.40
7720;DHT22;3902;49.474;8.616;2023-07-20T08:55:27;22.50;98.90
7720;DHT22;3902;49.474;8.616;2023-07-20T08:57:54;22.60;98.20
7720;DHT22;3902;49.474;8.616;2023-07-20T09:00:20;22.70;98.50
7720;DHT22;3902;49.474;8.616;2023-07-20T09:02:49;22.80;98.30
7720;DHT22;3902;49.474;8.616;2023-07-20T09:05:15;22.80;97.40
7720;DHT22;3902;49.474;8.616;2023-07-20T09:07:41;22.80;95.80
7720;DHT22;3902;49.474;8.616;2023-07-20T09:10:07;22.70;95.80
7720;DHT22;3902;49.474;8.616;2023-07-20T09:12:35;22.60;95.80
7720;DHT22;3902;49.474;8.616;2023-07-20T09:15:00;22.60;96.20
7720;DHT22;3902;49.474;8.616;2023-07-20T09:17:26;22.60;96.20
7720;DHT22;3902;49.474;8.616;2023-07-20T09:19:52;22.70;96.60
7720;DHT22;3902;49.474;8.616;2023-07-20T09:22:18;22.70;96.70
7720;DHT22;3902;49.474;8.616;2023-07-20T09:24:44;22.70;97.20
7720;DHT22;3902;49.474;8.616;2023-07-20T09:27:10;22.70;97.30
7720;DHT22;3902;49.474;8.616;2023-07-20T09:29:48;22.70;97.00
7720;DHT22;3902;49.474;8.616;2023-07-20T09:32:18;22.70;97.10
7720;DHT22;3902;49.474;8.616;2023-07-20T09:34:44;22.80;97.40
7720;DHT22;3902;49.474;8.616;2023-07-20T09:37:10;22.90;97.10
7720;DHT22;3902;49.474;8.616;2023-07-20T09:39:45;23.10;97.10
7720;DHT22;3902;49.474;8.616;2023-07-20T09:42:14;23.20;96.20
7720;DHT22;3902;49.474;8.616;2023-07-20T09:44:42;23.30;95.80
7720;DHT22;3902;49.474;8.616;2023-07-20T09:47:08;23.40;96.40
7720;DHT22;3902;49.474;8.616;2023-07-20T09:49:42;23.30;95.80
7720;DHT22;3902;49.474;8.616;2023-07-20T09:52:11;23.20;95.80
7720;DHT22;3902;49.474;8.616;2023-07-20T09:54:40;23.30;96.30
7720;DHT22;3902;49.474;8.616;2023-07-20T09:57:11;23.20;95.60
7720;DHT22;3902;49.474;8.616;2023-07-20T09:59:39;23.30;96.40
7720;DHT22;3902;49.474;8.616;2023-07-20T10:02:16;23.40;96.30
7720;DHT22;3902;49.474;8.616;2023-07-20T10:04:44;23.50;95.70
7720;DHT22;3902;49.474;8.616;2023-07-20T10:07:10;23.60;96.20
7720;DHT22;3902;49.474;8.616;2023-07-20T10:09:39;23.70;95.60
7720;DHT22;3902;49.474;8.616;2023-07-20T10:12:07;23.80;95.20
7720;DHT22;3902;49.474;8.616;2023-07-20T10:14:37;23.80;95.20
7720;DHT22;3902;49.474;8.616;2023-07-20T10:17:05;23.80;94.60
7720;DHT22;3902;49.474;8.616;2023-07-20T10:19:47;23.80;95.40
7720;DHT22;3902;49.474;8.616;2023-07-20T10:22:27;23.90;94.40
7720;DHT22;3902;49.474;8.616;2023-07-20T10:24:53;24.00;95.10
7720;DHT22;3902;49.474;8.616;2023-07-20T10:27:23;24.00;94.50
7720;DHT22;3902;49.474;8.616;2023-07-20T10:29:50;24.00;94.30
7720;DHT22;3902;49.474;8.616;2023-07-20T10:32:17;23.80;94.20
7720;DHT22;3902;49.474;8.616;2023-07-20T10:34:43;23.90;94.00
7720;DHT22;3902;49.474;8.616;2023-07-20T10:37:08;23.90;94.20
7720;DHT22;3902;49.474;8.616;2023-07-20T10:39:34;24.00;94.90
7720;DHT22;3902;49.474;8.616;2023-07-20T10:42:06;24.20;95.60
7720;DHT22;3902;49.474;8.616;2023-07-20T10:44:33;24.30;94.80
7720;DHT22;3902;49.474;8.616;2023-07-20T10:47:00;24.40;94.90
7720;DHT22;3902;49.474;8.616;2023-07-20T10:49:26;24.50;95.30
7720;DHT22;3902;49.474;8.616;2023-07-20T10:51:58;24.50;94.00
7720;DHT22;3902;49.474;8.616;2023-07-20T10:56:54;24.80;94.00
7720;DHT22;3902;49.474;8.616;2023-07-20T10:59:37;24.90;94.80
7720;DHT22;3902;49.474;8.616;2023-07-20T11:02:07;24.80;92.80
7720;DHT22;3902;49.474;8.616;2023-07-20T11:07:05;25.10;94.00
7720;DHT22;3902;49.474;8.616;2023-07-20T11:09:35;25.20;92.50
7720;DHT22;3902;49.474;8.616;2023-07-20T11:12:13;25.30;92.60
7720;DHT22;3902;49.474;8.616;2023-07-20T11:14:44;25.40;92.60
7720;DHT22;3902;49.474;8.616;2023-07-20T11:17:17;25.30;92.40
7720;DHT22;3902;49.474;8.616;2023-07-20T11:19:48;25.30;91.60
7720;DHT22;3902;49.474;8.616;2023-07-20T11:22:17;25.30;91.80
7720;DHT22;3902;49.474;8.616;2023-07-20T11:24:43;25.30;91.40
7720;DHT22;3902;49.474;8.616;2023-07-20T11:27:08;25.30;91.40
7720;DHT22;3902;49.474;8.616;2023-07-20T11:29:35;25.40;90.90
7720;DHT22;3902;49.474;8.616;2023-07-20T11:32:02;25.60;91.10
7720;DHT22;3902;49.474;8.616;2023-07-20T11:34:30;25.80;91.30
7720;DHT22;3902;49.474;8.616;2023-07-20T11:36:56;25.90;91.00
7720;DHT22;3902;49.474;8.616;2023-07-20T11:39:22;26.00;90.70
7720;DHT22;3902;49.474;8.616;2023-07-20T11:41:52;26.10;90.40
7720;DHT22;3902;49.474;8.616;2023-07-20T11:44:20;26.30;91.20
7720;DHT22;3902;49.474;8.616;2023-07-20T11:47:06;26.30;90.20
7720;DHT22;3902;49.474;8.616;2023-07-20T11:49:42;26.50;88.50
7720;DHT22;3902;49.474;8.616;2023-07-20T11:52:11;26.70;89.80
7720;DHT22;3902;49.474;8.616;2023-07-20T11:54:40;26.90;89.10
7720;DHT22;3902;49.474;8.616;2023-07-20T11:57:05;26.90;87.40
7720;DHT22;3902;49.474;8.616;2023-07-20T11:59:32;27.00;86.70
7720;DHT22;3902;49.474;8.616;2023-07-20T12:02:02;27.00;85.90
7720;DHT22;3902;49.474;8.616;2023-07-20T12:04:28;27.00;85.70
7720;DHT22;3902;49.474;8.616;2023-07-20T12:06:54;27.10;84.70
7720;DHT22;3902;49.474;8.616;2023-07-20T12:09:20;26.90;84.80
7720;DHT22;3902;49.474;8.616;2023-07-20T12:11:49;26.70;84.40
7720;DHT22;3902;49.474;8.616;2023-07-20T12:14:15;27.00;87.70
7720;DHT22;3902;49.474;8.616;2023-07-20T12:16:41;27.00;84.20
7720;DHT22;3902;49.474;8.616;2023-07-20T12:19:11;27.00;84.80
7720;DHT22;3902;49.474;8.616;2023-07-20T12:21:39;27.10;86.40
7720;DHT22;3902;49.474;8.616;2023-07-20T12:24:08;27.20;85.80
7720;DHT22;3902;49.474;8.616;2023-07-20T12:26:35;27.20;84.00
7720;DHT22;3902;49.474;8.616;2023-07-20T12:29:01;27.10;83.10
7720;DHT22;3902;49.474;8.616;2023-07-20T12:31:28;26.80;83.10
7720;DHT22;3902;49.474;8.616;2023-07-20T12:33:56;26.80;83.70
7720;DHT22;3902;49.474;8.616;2023-07-20T12:36:22;26.90;85.00
7720;DHT22;3902;49.474;8.616;2023-07-20T12:38:47;26.70;83.10
7720;DHT22;3902;49.474;8.616;2023-07-20T12:41:13;26.70;85.40
7720;DHT22;3902;49.474;8.616;2023-07-20T12:43:40;26.80;86.00
7720;DHT22;3902;49.474;8.616;2023-07-20T12:46:06;27.00;85.00
7720;DHT22;3902;49.474;8.616;2023-07-20T12:48:32;27.20;83.10
7720;DHT22;3902;49.474;8.616;2023-07-20T12:50:57;27.20;84.40
7720;DHT22;3902;49.474;8.616;2023-07-20T12:53:23;27.10;83.10
7720;DHT22;3902;49.474;8.616;2023-07-20T12:55:49;27.10;83.70
7720;DHT22;3902;49.474;8.616;2023-07-20T12:58:15;27.00;84.10
7720;DHT22;3902;49.474;8.616;2023-07-20T13:00:40;27.00;84.10
7720;DHT22;3902;49.474;8.616;2023-07-20T13:03:07;27.10;85.40
7720;DHT22;3902;49.474;8.616;2023-07-20T13:05:34;27.10;83.20
7720;DHT22;3902;49.474;8.616;2023-07-20T13:08:00;27.10;83.50
7720;DHT22;3902;49.474;8.616;2023-07-20T13:10:26;26.90;81.20
7720;DHT22;3902;49.474;8.616;2023-07-20T13:12:52;26.90;83.50
7720;DHT22;3902;49.474;8.616;2023-07-20T13:15:17;27.00;84.40
7720;DHT22;3902;49.474;8.616;2023-07-20T13:17:44;27.10;83.50
7720;DHT22;3902;49.474;8.616;2023-07-20T13:20:10;27.10;82.60
7720;DHT22;3902;49.474;8.616;2023-07-20T13:22:39;27.00;81.50
7720;DHT22;3902;49.474;8.616;2023-07-20T13:25:05;27.10;81.80
7720;DHT22;3902;49.474;8.616;2023-07-20T13:27:31;27.20;84.20
7720;DHT22;3902;49.474;8.616;2023-07-20T13:29:58;27.30;84.30
7720;DHT22;3902;49.474;8.616;2023-07-20T13:32:24;27.40;82.50
7720;DHT22;3902;49.474;8.616;2023-07-20T13:34:49;27.60;85.00
7720;DHT22;3902;49.474;8.616;2023-07-20T13:37:15;27.80;83.80
7720;DHT22;3902;49.474;8.616;2023-07-20T13:39:41;28.10;83.60
7720;DHT22;3902;49.474;8.616;2023-07-20T13:42:07;28.40;82.40
7720;DHT22;3902;49.474;8.616;2023-07-20T13:44:34;28.60;81.70
7720;DHT22;3902;49.474;8.616;2023-07-20T13:47:00;28.70;81.80
7720;DHT22;3902;49.474;8.616;2023-07-20T13:49:26;28.80;81.60
7720;DHT22;3902;49.474;8.616;2023-07-20T13:51:52;28.90;81.40
7720;DHT22;3902;49.474;8.616;2023-07-20T13:54:17;28.90;79.30
7720;DHT22;3902;49.474;8.616;2023-07-20T13:56:43;29.00;79.60
7720;DHT22;3902;49.474;8.616;2023-07-20T13:59:08;29.10;80.90
7720;DHT22;3902;49.474;8.616;2023-07-20T14:01:34;29.10;79.60
7720;DHT22;3902;49.474;8.616;2023-07-20T14:04:01;29.10;80.20
7720;DHT22;3902;49.474;8.616;2023-07-20T14:06:30;28.90;78.40
7720;DHT22;3902;49.474;8.616;2023-07-20T14:08:56;28.80;79.20
7720;DHT22;3902;49.474;8.616;2023-07-20T14:11:22;28.60;77.40
7720;DHT22;3902;49.474;8.616;2023-07-20T14:13:49;28.60;80.00
7720;DHT22;3902;49.474;8.616;2023-07-20T14:16:15;28.50;79.20
7720;DHT22;3902;49.474;8.616;2023-07-20T14:18:40;28.50;78.00
7720;DHT22;3902;49.474;8.616;2023-07-20T14:21:06;28.50;80.40
7720;DHT22;3902;49.474;8.616;2023-07-20T14:23:32;28.60;78.00
7720;DHT22;3902;49.474;8.616;2023-07-20T14:25:57;28.80;80.20
7720;DHT22;3902;49.474;8.616;2023-07-20T14:28:24;29.00;80.00
7720;DHT22;3902;49.474;8.616;2023-07-20T14:30:49;29.20;78.80
7720;DHT22;3902;49.474;8.616;2023-07-20T14:33:15;29.40;78.50
7720;DHT22;3902;49.474;8.616;2023-07-20T14:35:40;29.50;74.80
7720;DHT22;3902;49.474;8.616;2023-07-20T14:38:06;29.30;76.60
7720;DHT22;3902;49.474;8.616;2023-07-20T14:40:31;29.10;74.20
7720;DHT22;3902;49.474;8.616;2023-07-20T14:42:57;29.10;75.80
7720;DHT22;3902;49.474;8.616;2023-07-20T14:45:23;29.00;75.80
7720;DHT22;3902;49.474;8.616;2023-07-20T14:47:49;28.90;75.90
7720;DHT22;3902;49.474;8.616;2023-07-20T14:50:19;28.70;74.90
7720;DHT22;3902;49.474;8.616;2023-07-20T14:52:46;28.80;76.90
7720;DHT22;3902;49.474;8.616;2023-07-20T14:55:11;28.90;76.50
7720;DHT22;3902;49.474;8.616;2023-07-20T14:57:37;29.00;77.00
7720;DHT22;3902;49.474;8.616;2023-07-20T15:00:03;29.20;77.70
7720;DHT22;3902;49.474;8.616;2023-07-20T15:02:33;29.30;75.10
7720;DHT22;3902;49.474;8.616;2023-07-20T15:04:59;29.50;75.00
7720;DHT22;3902;49.474;8.616;2023-07-20T15:07:25;29.50;74.10
7720;DHT22;3902;49.474;8.616;2023-07-20T15:09:50;29.60;73.10
7720;DHT22;3902;49.474;8.616;2023-07-20T15:12:16;29.50;74.40
7720;DHT22;3902;49.474;8.616;2023-07-20T15:14:42;29.40;73.70
7720;DHT22;3902;49.474;8.616;2023-07-20T15:17:09;29.40;73.60
7720;DHT22;3902;49.474;8.616;2023-07-20T15:19:35;29.30;75.80
7720;DHT22;3902;49.474;8.616;2023-07-20T15:22:02;29.30;76.80
7720;DHT22;3902;49.474;8.616;2023-07-20T15:24:28;29.40;76.40
7720;DHT22;3902;49.474;8.616;2023-07-20T15:26:54;29.50;77.50
7720;DHT22;3902;49.474;8.616;2023-07-20T15:29:19;29.50;76.40
7720;DHT22;3902;49.474;8.616;2023-07-20T15:31:46;29.60;76.50
7720;DHT22;3902;49.474;8.616;2023-07-20T15:34:11;29.60;76.20
7720;DHT22;3902;49.474;8.616;2023-07-20T15:36:38;29.70;77.10
7720;DHT22;3902;49.474;8.616;2023-07-20T15:39:04;29.80;76.30
7720;DHT22;3902;49.474;8.616;2023-07-20T15:41:30;29.90;75.70
7720;DHT22;3902;49.474;8.616;2023-07-20T15:43:56;29.90;76.20
7720;DHT22;3902;49.474;8.616;2023-07-20T15:46:45;29.90;76.80
7720;DHT22;3902;49.474;8.616;2023-07-20T15:49:10;30.00;76.40
7720;DHT22;3902;49.474;8.616;2023-07-20T15:51:37;30.00;76.70
7720;DHT22;3902;49.474;8.616;2023-07-20T15:54:04;30.00;76.80
7720;DHT22;3902;49.474;8.616;2023-07-20T15:56:33;29.90;76.20
7720;DHT22;3902;49.474;8.616;2023-07-20T15:58:59;29.80;76.20
7720;DHT22;3902;49.474;8.616;2023-07-20T16:01:25;29.60;75.90
7720;DHT22;3902;49.474;8.616;2023-07-20T16:03:50;29.50;76.50
7720;DHT22;3902;49.474;8.616;2023-07-20T16:06:16;29.40;76.30
7720;DHT22;3902;49.474;8.616;2023-07-20T16:08:42;29.20;76.30
7720;DHT22;3902;49.474;8.616;2023-07-20T16:11:07;29.10;75.90